Terminal Aerodrome Forecast
Issued by NWS

Home | Current Version | Previous Version | Text Only | Print | Product List | Glossary On
Versions: 1 2 3 4 5 6 7 8 9 10 11 12
000
FTUS46 KPDT 051126
TAFBDN
TAF
KBDN 051126Z 0512/0612 21005KT P6SM SCT200
     FM051900 33010KT P6SM FEW100 SCT200
     FM060400 VRB05KT P6SM FEW200
      AMD NOT SKED=

USA.gov is the U.S. government's official web portal to all federal, state and local government web resources and services.